Time;durP1;ratioP1;P1;durP2;ratioP2;P2;SDS_P1;SDS_P2;PMS_P1;PMS_P2;Temp;Humidity;BMP_temperature;BMP_pressure;BME280_temperature;BME280_humidity;BME280_pressure;Samples;Min_cycle;Max_cycle;Signal;HPM_P1;HPM_P2
2023/07/08 00:02:12;;;;;;;1.95;1.58;;;18.80;99.90;;;;;;4965937;28;20121;-72
2023/07/08 00:04:39;;;;;;;5.35;2.28;;;18.80;99.90;;;;;;4965676;28;20058;-72
2023/07/08 00:07:09;;;;;;;3.55;2.15;;;18.70;99.90;;;;;;4965048;28;20042;-71
2023/07/08 00:09:34;;;;;;;3.90;2.13;;;18.70;99.90;;;;;;4966804;28;20130;-72
2023/07/08 00:12:00;;;;;;;5.70;2.28;;;18.70;99.90;;;;;;4966317;28;20114;-73
2023/07/08 00:14:25;;;;;;;3.28;2.58;;;18.70;99.90;;;;;;4965151;28;20055;-71
2023/07/08 00:16:51;;;;;;;5.95;2.65;;;18.60;99.90;;;;;;4965189;28;20035;-71
2023/07/08 00:19:19;;;;;;;3.38;2.10;;;18.60;99.90;;;;;;4965160;28;20405;-71
2023/07/08 00:21:45;;;;;;;4.72;2.22;;;18.60;99.90;;;;;;4965694;28;20051;-71
2023/07/08 00:24:12;;;;;;;5.40;2.40;;;18.50;99.90;;;;;;4966357;28;20054;-71
2023/07/08 00:26:37;;;;;;;2.45;1.80;;;18.50;99.90;;;;;;4966163;28;20069;-71
2023/07/08 00:29:08;;;;;;;2.75;1.90;;;18.50;99.90;;;;;;4965512;28;20047;-71
2023/07/08 00:31:33;;;;;;;2.67;1.92;;;18.50;99.90;;;;;;4966182;28;20078;-72
2023/07/08 00:33:59;;;;;;;4.25;2.10;;;18.40;99.90;;;;;;4965736;28;20082;-71
2023/07/08 00:36:27;;;;;;;4.63;2.30;;;18.40;99.90;;;;;;4966174;28;20123;-72
2023/07/08 00:38:52;;;;;;;4.30;1.95;;;18.40;99.90;;;;;;4964818;28;20039;-71
2023/07/08 00:41:21;;;;;;;3.35;2.38;;;18.30;99.90;;;;;;4965710;28;20457;-71
2023/07/08 00:43:51;;;;;;;3.05;2.22;;;18.30;99.90;;;;;;4965683;28;20086;-71
2023/07/08 00:46:29;;;;;;;3.28;2.60;;;18.30;99.90;;;;;;4965765;28;20042;-72
2023/07/08 00:49:14;;;;;;;3.97;2.33;;;18.30;99.90;;;;;;4964355;28;20054;-71
2023/07/08 00:51:40;;;;;;;2.95;1.70;;;18.30;99.90;;;;;;4965793;28;20485;-71
2023/07/08 00:54:10;;;;;;;4.30;2.38;;;18.30;99.90;;;;;;4964011;28;20055;-72
2023/07/08 00:57:01;;;;;;;3.78;2.08;;;18.20;99.90;;;;;;4964410;28;20047;-71
2023/07/08 00:59:35;;;;;;;3.83;2.25;;;18.20;99.90;;;;;;4954460;28;20065;-72
2023/07/08 01:02:04;;;;;;;6.80;2.08;;;18.20;99.90;;;;;;4964011;28;20042;-72
2023/07/08 01:04:42;;;;;;;2.40;2.08;;;18.10;99.90;;;;;;4964464;28;20043;-73
2023/07/08 01:07:09;;;;;;;3.85;2.67;;;18.10;99.90;;;;;;4963764;28;20057;-72
2023/07/08 01:09:38;;;;;;;6.97;2.42;;;18.00;99.90;;;;;;4965878;28;20093;-72
2023/07/08 01:12:08;;;;;;;3.78;2.05;;;18.10;99.90;;;;;;4965182;28;20030;-72
2023/07/08 01:14:36;;;;;;;4.07;2.08;;;18.10;99.90;;;;;;4965248;28;20073;-71
2023/07/08 01:17:03;;;;;;;4.00;2.47;;;18.10;99.90;;;;;;4964911;28;20045;-72
2023/07/08 01:19:32;;;;;;;4.10;2.22;;;18.00;99.90;;;;;;4947075;28;20042;-72
2023/07/08 01:22:05;;;;;;;2.70;1.63;;;18.00;99.90;;;;;;4965621;28;20134;-72
2023/07/08 01:24:34;;;;;;;3.70;2.58;;;18.00;99.90;;;;;;4965388;28;20053;-73
2023/07/08 01:27:02;;;;;;;5.55;2.55;;;18.00;99.90;;;;;;4964414;28;20070;-74
2023/07/08 01:29:28;;;;;;;4.05;2.60;;;17.90;99.90;;;;;;4964265;28;20054;-72
2023/07/08 01:31:56;;;;;;;3.22;2.63;;;17.90;99.90;;;;;;4945873;29;20055;-72
2023/07/08 01:34:22;;;;;;;3.25;2.30;;;17.90;99.90;;;;;;4961391;28;20055;-72
2023/07/08 01:36:53;;;;;;;2.63;1.80;;;17.90;99.90;;;;;;4964824;28;20870;-73
2023/07/08 01:39:22;;;;;;;5.00;2.00;;;17.90;99.90;;;;;;4959370;28;20074;-72
2023/07/08 01:41:47;;;;;;;4.30;2.67;;;17.80;99.90;;;;;;4963492;28;20090;-72
2023/07/08 01:44:29;;;;;;;3.65;2.28;;;17.80;99.90;;;;;;4964523;28;20066;-72
2023/07/08 01:47:13;;;;;;;3.10;2.30;;;17.80;99.90;;;;;;4946024;29;20150;-72
2023/07/08 01:49:40;;;;;;;4.78;2.00;;;17.80;99.90;;;;;;4944837;28;20130;-73
2023/07/08 01:52:07;;;;;;;2.40;1.75;;;17.70;99.90;;;;;;4951300;28;20133;-73
2023/07/08 01:54:32;;;;;;;3.33;2.40;;;17.70;99.90;;;;;;4964857;28;20038;-73
2023/07/08 01:56:58;;;;;;;3.42;2.10;;;17.70;99.90;;;;;;4963796;28;20612;-71
2023/07/08 01:59:24;;;;;;;4.07;2.17;;;17.70;99.90;;;;;;4965105;28;20528;-71
2023/07/08 02:01:54;;;;;;;3.22;1.85;;;17.70;99.90;;;;;;4964675;28;20042;-70
2023/07/08 02:04:24;;;;;;;3.35;2.40;;;17.60;99.90;;;;;;4964199;28;20046;-71
2023/07/08 02:06:58;;;;;;;5.68;2.03;;;17.60;99.90;;;;;;4964189;28;20446;-72
2023/07/08 02:09:24;;;;;;;4.30;2.10;;;17.60;99.90;;;;;;4964534;28;20089;-71
2023/07/08 02:11:51;;;;;;;7.18;2.20;;;17.60;99.90;;;;;;4964366;28;20542;-71
2023/07/08 02:14:17;;;;;;;4.85;2.15;;;17.50;99.90;;;;;;4964364;28;20046;-71
2023/07/08 02:16:42;;;;;;;4.43;2.60;;;17.50;99.90;;;;;;4964630;28;20078;-73
2023/07/08 02:19:11;;;;;;;4.53;2.67;;;17.50;99.90;;;;;;4963921;28;20086;-71
2023/07/08 02:21:37;;;;;;;3.83;2.40;;;17.50;99.90;;;;;;4964220;28;20054;-72
2023/07/08 02:24:03;;;;;;;4.90;2.58;;;17.40;99.90;;;;;;4963133;28;20054;-72
2023/07/08 02:26:31;;;;;;;5.47;2.60;;;17.40;99.90;;;;;;4963798;28;20050;-71
2023/07/08 02:29:00;;;;;;;4.07;3.03;;;17.40;99.90;;;;;;4963158;28;20053;-72
2023/07/08 02:31:26;;;;;;;4.97;3.08;;;17.30;99.90;;;;;;4966851;28;20539;-72
2023/07/08 02:33:53;;;;;;;4.88;2.10;;;17.30;99.90;;;;;;4967067;28;20628;-72
2023/07/08 02:36:20;;;;;;;3.47;2.78;;;17.30;99.90;;;;;;4967442;28;20061;-72
2023/07/08 02:38:45;;;;;;;4.72;2.00;;;17.30;99.90;;;;;;4967562;28;20026;-71
2023/07/08 02:41:11;;;;;;;4.45;2.35;;;17.20;99.90;;;;;;4961166;28;20490;-71
2023/07/08 02:43:38;;;;;;;4.47;2.30;;;17.20;99.90;;;;;;4968043;28;20210;-72
2023/07/08 02:46:03;;;;;;;5.10;2.53;;;17.20;99.90;;;;;;4967433;28;20089;-72
2023/07/08 02:48:29;;;;;;;3.80;2.05;;;17.20;99.90;;;;;;4967448;28;20050;-71
2023/07/08 02:51:03;;;;;;;3.83;2.40;;;17.20;99.90;;;;;;4950760;28;20050;-71
2023/07/08 02:53:28;;;;;;;3.55;2.45;;;17.20;99.90;;;;;;4968308;28;20039;-71
2023/07/08 02:55:54;;;;;;;4.05;2.50;;;17.20;99.90;;;;;;4966994;28;20572;-71
2023/07/08 02:58:20;;;;;;;4.13;2.22;;;17.20;99.90;;;;;;4967470;28;20042;-71
2023/07/08 03:00:50;;;;;;;4.75;3.25;;;17.20;99.90;;;;;;4967477;28;20102;-71
2023/07/08 03:03:16;;;;;;;3.85;3.47;;;17.10;99.90;;;;;;4966095;28;20508;-71
2023/07/08 03:05:42;;;;;;;4.95;2.72;;;17.10;99.90;;;;;;4966139;28;20058;-71
2023/07/08 03:08:08;;;;;;;4.80;3.30;;;17.10;99.90;;;;;;4949814;28;20054;-72
2023/07/08 03:10:33;;;;;;;6.20;2.83;;;17.10;99.90;;;;;;4967385;28;20724;-71
2023/07/08 03:12:59;;;;;;;4.05;2.60;;;17.10;99.90;;;;;;4967814;28;20058;-71
2023/07/08 03:15:24;;;;;;;4.90;2.90;;;17.10;99.90;;;;;;4966265;28;20421;-72
2023/07/08 03:17:50;;;;;;;5.13;2.30;;;17.00;99.90;;;;;;4965199;28;20057;-71
2023/07/08 03:20:17;;;;;;;4.38;2.60;;;17.00;99.90;;;;;;4967125;28;20537;-71
2023/07/08 03:22:42;;;;;;;2.90;2.45;;;17.00;99.90;;;;;;4967245;28;20093;-71
2023/07/08 03:25:09;;;;;;;4.38;3.25;;;17.00;99.90;;;;;;4965750;28;20038;-71
2023/07/08 03:27:34;;;;;;;5.85;2.80;;;16.90;99.90;;;;;;4966920;28;20655;-71
2023/07/08 03:30:00;;;;;;;5.43;3.15;;;16.90;99.90;;;;;;4965105;28;20130;-73
2023/07/08 03:32:26;;;;;;;5.20;3.55;;;16.90;99.90;;;;;;4966346;28;20053;-73
2023/07/08 03:34:51;;;;;;;7.82;2.88;;;16.90;99.90;;;;;;4966240;28;20082;-72
2023/07/08 03:37:17;;;;;;;3.38;2.60;;;16.90;99.90;;;;;;4965591;28;20039;-72
2023/07/08 03:39:42;;;;;;;6.28;3.05;;;16.90;99.90;;;;;;4966613;28;20041;-72
2023/07/08 03:42:09;;;;;;;4.43;2.67;;;16.90;99.90;;;;;;4964954;28;20046;-72
2023/07/08 03:44:34;;;;;;;4.47;2.55;;;16.90;99.90;;;;;;4966823;28;20093;-72
2023/07/08 03:47:00;;;;;;;4.53;3.40;;;16.90;99.90;;;;;;4966306;28;20043;-73
2023/07/08 03:49:26;;;;;;;2.47;2.28;;;16.90;99.90;;;;;;4966328;28;20047;-72
2023/07/08 03:51:53;;;;;;;5.30;3.20;;;16.90;99.90;;;;;;4965510;28;20446;-72
2023/07/08 03:54:20;;;;;;;7.45;3.20;;;16.90;99.90;;;;;;4966223;28;20042;-72
2023/07/08 03:56:46;;;;;;;7.20;3.42;;;16.90;99.90;;;;;;4966627;28;20062;-72
2023/07/08 03:59:11;;;;;;;6.50;2.90;;;16.90;99.90;;;;;;4965216;28;20051;-73
2023/07/08 04:01:40;;;;;;;5.22;3.58;;;16.80;99.90;;;;;;4966262;28;20489;-72
2023/07/08 04:04:08;;;;;;;2.90;2.45;;;16.80;99.90;;;;;;4963879;28;20101;-72
2023/07/08 04:06:34;;;;;;;3.22;2.40;;;16.80;99.90;;;;;;4966325;28;20502;-71
2023/07/08 04:09:00;;;;;;;4.10;2.85;;;16.80;99.90;;;;;;4966014;28;20042;-74
2023/07/08 04:11:26;;;;;;;7.43;3.55;;;16.80;99.90;;;;;;4966788;28;20133;-72
2023/07/08 04:13:52;;;;;;;4.63;2.85;;;16.80;99.90;;;;;;4966489;28;20046;-72
2023/07/08 04:16:29;;;;;;;4.63;2.85;;;16.90;99.90;;;;;;4966119;28;20167;-72
2023/07/08 04:18:55;;;;;;;6.57;3.50;;;16.90;99.90;;;;;;4964913;28;20062;-72
2023/07/08 04:21:25;;;;;;;4.32;2.78;;;16.90;99.90;;;;;;4963660;28;20047;-72
2023/07/08 04:23:51;;;;;;;4.05;2.72;;;16.90;99.90;;;;;;4964796;28;20473;-73
2023/07/08 04:26:18;;;;;;;5.10;3.22;;;16.90;99.90;;;;;;4964717;28;20045;-73
2023/07/08 04:28:44;;;;;;;2.65;2.33;;;16.90;99.90;;;;;;4965681;28;20078;-73
2023/07/08 04:31:10;;;;;;;4.63;2.78;;;16.90;99.90;;;;;;4965668;28;20045;-73
2023/07/08 04:33:36;;;;;;;4.15;2.80;;;16.90;99.90;;;;;;4964905;28;20039;-73
2023/07/08 04:36:02;;;;;;;6.80;3.30;;;16.90;99.90;;;;;;4965914;28;20069;-73
2023/07/08 04:38:28;;;;;;;6.90;2.83;;;16.90;99.90;;;;;;4965259;28;20557;-73
2023/07/08 04:40:54;;;;;;;4.57;3.33;;;16.90;99.90;;;;;;4965955;28;20127;-73
2023/07/08 04:43:20;;;;;;;5.50;3.55;;;16.90;99.90;;;;;;4964023;28;20195;-73
2023/07/08 04:45:50;;;;;;;4.10;3.28;;;16.90;99.90;;;;;;4964231;28;20035;-73
2023/07/08 04:48:18;;;;;;;3.92;2.85;;;17.00;99.90;;;;;;4963355;28;20517;-73
2023/07/08 04:50:46;;;;;;;4.93;3.70;;;17.00;99.90;;;;;;4965394;28;20085;-73
2023/07/08 04:53:12;;;;;;;4.93;3.20;;;17.00;99.90;;;;;;4947433;28;20050;-73
2023/07/08 04:55:44;;;;;;;5.55;4.95;;;17.00;99.90;;;;;;4964588;28;20078;-73
2023/07/08 04:58:10;;;;;;;3.53;2.75;;;17.10;99.90;;;;;;4964193;28;20042;-73
2023/07/08 05:00:36;;;;;;;3.65;2.83;;;17.10;99.90;;;;;;4965500;28;20559;-72
2023/07/08 05:03:02;;;;;;;3.63;2.95;;;17.10;99.90;;;;;;4948563;28;20101;-73
2023/07/08 05:05:28;;;;;;;5.97;3.22;;;17.10;99.90;;;;;;4954757;28;20405;-73
2023/07/08 05:07:53;;;;;;;7.95;3.60;;;17.10;99.90;;;;;;4965111;28;20061;-73
2023/07/08 05:10:20;;;;;;;6.25;2.78;;;17.20;99.90;;;;;;4963886;28;20644;-73
2023/07/08 05:12:46;;;;;;;6.43;3.58;;;17.20;99.90;;;;;;4965096;28;20477;-72
2023/07/08 05:15:13;;;;;;;4.55;3.42;;;17.30;99.90;;;;;;4965029;28;20039;-73
2023/07/08 05:17:39;;;;;;;4.43;2.92;;;17.30;99.90;;;;;;4963478;28;20177;-73
2023/07/08 05:20:10;;;;;;;4.20;2.85;;;17.30;99.90;;;;;;4965125;28;20054;-72
2023/07/08 05:22:36;;;;;;;5.65;3.30;;;17.40;99.90;;;;;;4963329;28;20043;-73
2023/07/08 05:25:03;;;;;;;5.80;3.78;;;17.40;99.90;;;;;;4963942;28;20050;-73
2023/07/08 05:27:29;;;;;;;5.57;3.35;;;17.40;99.90;;;;;;4965474;28;20512;-73
2023/07/08 05:29:55;;;;;;;7.50;3.10;;;17.40;99.90;;;;;;4965337;28;20046;-72
2023/07/08 05:32:20;;;;;;;9.20;4.35;;;17.50;99.90;;;;;;4963818;28;20039;-73
2023/07/08 05:34:46;;;;;;;6.20;3.00;;;17.50;99.90;;;;;;4965241;28;20047;-72
2023/07/08 05:37:13;;;;;;;5.53;2.95;;;17.50;99.90;;;;;;4964585;28;20031;-73
2023/07/08 05:39:39;;;;;;;7.93;3.35;;;17.60;99.90;;;;;;4964640;28;20054;-73
2023/07/08 05:42:05;;;;;;;4.10;2.78;;;17.60;99.90;;;;;;4964854;28;20433;-73
2023/07/08 05:44:31;;;;;;;3.83;3.03;;;17.70;99.90;;;;;;4965289;28;20046;-73
2023/07/08 05:46:57;;;;;;;4.28;2.95;;;17.70;99.90;;;;;;4965248;28;20049;-72
2023/07/08 05:49:22;;;;;;;5.50;3.38;;;17.70;99.90;;;;;;4963664;28;20590;-73
2023/07/08 05:51:48;;;;;;;4.32;3.00;;;17.80;99.90;;;;;;4951251;28;20409;-73
2023/07/08 05:54:14;;;;;;;5.75;2.75;;;17.80;99.90;;;;;;4960064;28;20589;-73
2023/07/08 05:56:40;;;;;;;5.10;2.67;;;17.90;99.90;;;;;;4964829;28;20126;-73
2023/07/08 05:59:06;;;;;;;5.03;2.60;;;17.90;99.90;;;;;;4963220;28;20129;-73
2023/07/08 06:01:32;;;;;;;6.38;2.90;;;17.90;99.90;;;;;;4964695;28;20440;-73
2023/07/08 06:03:59;;;;;;;4.85;3.25;;;18.00;99.90;;;;;;4964352;28;20046;-73
2023/07/08 06:06:25;;;;;;;3.70;2.75;;;18.00;99.90;;;;;;4968631;28;20063;-72
2023/07/08 06:08:51;;;;;;;7.43;3.08;;;18.00;99.90;;;;;;4967438;28;20054;-73
2023/07/08 06:11:17;;;;;;;4.10;2.65;;;18.10;99.90;;;;;;4968418;28;20693;-73
2023/07/08 06:13:42;;;;;;;3.03;2.53;;;18.20;99.90;;;;;;4968691;28;20437;-73
2023/07/08 06:16:08;;;;;;;6.13;3.22;;;18.20;99.90;;;;;;4968316;28;20039;-73
2023/07/08 06:18:34;;;;;;;4.63;2.90;;;18.20;99.90;;;;;;4966773;28;20051;-73
2023/07/08 06:21:01;;;;;;;4.32;2.92;;;18.30;99.90;;;;;;4966388;28;20366;-72
2023/07/08 06:23:27;;;;;;;8.40;2.95;;;18.30;99.90;;;;;;4965158;28;20046;-72
2023/07/08 06:25:54;;;;;;;4.93;2.65;;;18.40;99.90;;;;;;4965797;28;20042;-72
2023/07/08 06:28:20;;;;;;;3.72;2.10;;;18.50;99.90;;;;;;4968047;28;20055;-71
2023/07/08 06:30:46;;;;;;;3.03;2.25;;;18.50;99.90;;;;;;4967943;28;20511;-71
2023/07/08 06:33:12;;;;;;;4.32;2.85;;;18.60;99.90;;;;;;4965283;28;20078;-73
2023/07/08 06:35:39;;;;;;;4.38;2.22;;;18.70;99.90;;;;;;4966374;28;20498;-71
2023/07/08 06:38:06;;;;;;;3.75;2.67;;;18.70;99.90;;;;;;4964792;28;20207;-71
2023/07/08 06:40:33;;;;;;;6.72;3.03;;;18.80;99.90;;;;;;4965665;28;20371;-72
2023/07/08 06:42:58;;;;;;;3.25;2.25;;;18.80;99.90;;;;;;4963387;28;20128;-72
2023/07/08 06:45:24;;;;;;;3.85;1.90;;;18.90;99.90;;;;;;4967452;28;20494;-72
2023/07/08 06:47:50;;;;;;;4.28;2.28;;;18.90;99.90;;;;;;4948579;28;20054;-72
2023/07/08 06:50:16;;;;;;;4.45;2.20;;;19.00;99.90;;;;;;4967753;28;20489;-72
2023/07/08 06:52:41;;;;;;;3.35;2.38;;;19.10;99.90;;;;;;4965419;28;20564;-71
2023/07/08 06:55:10;;;;;;;5.32;2.67;;;19.10;99.90;;;;;;4967945;28;20519;-70
2023/07/08 06:57:38;;;;;;;5.32;2.90;;;19.20;99.90;;;;;;4967180;28;20497;-71
2023/07/08 07:00:05;;;;;;;2.25;1.70;;;19.20;99.90;;;;;;4965586;28;20063;-71
2023/07/08 07:02:31;;;;;;;5.47;2.70;;;19.30;99.90;;;;;;4959191;28;20050;-73
2023/07/08 07:04:56;;;;;;;3.42;2.17;;;19.30;99.90;;;;;;4966728;28;20059;-71
2023/07/08 07:07:22;;;;;;;3.38;1.90;;;19.40;99.90;;;;;;4966191;28;20053;-71
2023/07/08 07:09:48;;;;;;;4.10;2.03;;;19.40;99.90;;;;;;4966124;28;20057;-72
2023/07/08 07:12:14;;;;;;;3.22;2.10;;;19.50;99.90;;;;;;4967411;28;20775;-72
2023/07/08 07:14:39;;;;;;;5.07;2.50;;;19.50;99.90;;;;;;4967471;28;20070;-72
2023/07/08 07:17:05;;;;;;;3.25;1.90;;;19.60;99.90;;;;;;4965610;28;20532;-72
2023/07/08 07:19:30;;;;;;;2.38;1.75;;;19.70;99.90;;;;;;4966509;28;20053;-72
2023/07/08 07:21:56;;;;;;;2.35;2.00;;;19.70;99.90;;;;;;4965935;28;20446;-73
2023/07/08 07:24:22;;;;;;;3.53;3.10;;;19.70;99.90;;;;;;4966073;28;20371;-72
2023/07/08 07:26:47;;;;;;;4.10;2.03;;;19.80;99.90;;;;;;4967397;28;20058;-72
2023/07/08 07:29:17;;;;;;;3.08;2.20;;;19.80;99.90;;;;;;4949965;28;20043;-71
2023/07/08 07:31:43;;;;;;;3.65;2.63;;;19.90;99.90;;;;;;4967266;28;20047;-71
2023/07/08 07:34:09;;;;;;;2.88;2.03;;;19.90;99.90;;;;;;4966360;28;20062;-72
2023/07/08 07:36:34;;;;;;;3.83;2.63;;;20.00;99.90;;;;;;4967278;28;20042;-72
2023/07/08 07:39:00;;;;;;;5.93;2.33;;;20.00;99.90;;;;;;4966675;28;20273;-72
2023/07/08 07:41:26;;;;;;;2.15;1.88;;;20.10;99.90;;;;;;4967474;28;20101;-72
2023/07/08 07:43:51;;;;;;;7.70;2.15;;;20.20;99.90;;;;;;4966904;28;20031;-71
2023/07/08 07:46:18;;;;;;;3.55;2.20;;;20.20;99.90;;;;;;4965936;28;20038;-72
2023/07/08 07:48:43;;;;;;;3.58;2.40;;;20.30;99.90;;;;;;4965789;28;20058;-72
2023/07/08 07:51:10;;;;;;;4.70;2.30;;;20.30;99.90;;;;;;4967069;28;20051;-70
2023/07/08 07:53:39;;;;;;;3.97;2.63;;;20.40;99.90;;;;;;4966554;28;20043;-71
2023/07/08 07:56:05;;;;;;;3.08;2.05;;;20.40;99.90;;;;;;4966715;28;20129;-71
2023/07/08 07:58:31;;;;;;;2.97;2.17;;;20.40;99.90;;;;;;4966975;28;20054;-71
2023/07/08 08:00:57;;;;;;;3.63;2.38;;;20.50;99.90;;;;;;4965832;28;20034;-78
2023/07/08 08:03:23;;;;;;;3.33;2.15;;;20.50;99.90;;;;;;4946540;28;20038;-72
2023/07/08 08:05:49;;;;;;;2.35;1.88;;;20.60;99.90;;;;;;4964605;28;20043;-72
2023/07/08 08:08:15;;;;;;;2.03;1.73;;;20.60;99.90;;;;;;4966242;28;20054;-72
2023/07/08 08:10:41;;;;;;;2.83;2.15;;;20.70;99.90;;;;;;4965069;28;20035;-73
2023/07/08 08:13:08;;;;;;;2.88;2.50;;;20.70;99.90;;;;;;4965005;28;20050;-72
2023/07/08 08:15:34;;;;;;;2.38;2.13;;;20.80;99.90;;;;;;4966194;28;20043;-73
2023/07/08 08:17:59;;;;;;;5.03;2.10;;;20.80;99.90;;;;;;4969455;28;20054;-74
2023/07/08 08:20:26;;;;;;;5.05;2.30;;;20.90;99.90;;;;;;4974114;28;20070;-74
2023/07/08 08:22:52;;;;;;;4.78;2.00;;;20.90;99.90;;;;;;4983689;28;20101;-72
2023/07/08 08:25:19;;;;;;;3.67;2.53;;;21.00;99.90;;;;;;4961917;28;20050;-72
2023/07/08 08:27:45;;;;;;;3.72;1.92;;;21.00;99.90;;;;;;4970476;28;20038;-73
2023/07/08 08:30:11;;;;;;;2.90;2.05;;;21.10;99.90;;;;;;4963574;28;20096;-74
2023/07/08 08:32:37;;;;;;;2.70;2.28;;;21.10;99.90;;;;;;4959985;28;20042;-73
2023/07/08 08:35:03;;;;;;;2.30;2.10;;;21.20;99.90;;;;;;4964235;28;20039;-72
2023/07/08 08:37:29;;;;;;;5.25;1.95;;;21.30;99.90;;;;;;4966198;28;20041;-75
2023/07/08 08:39:55;;;;;;;2.83;2.22;;;21.30;99.90;;;;;;4965380;28;20046;-74
2023/07/08 08:42:43;;;;;;;10.70;3.10;;;21.40;99.90;;;;;;4966158;28;20026;-74
2023/07/08 08:45:14;;;;;;;6.43;2.80;;;21.40;99.90;;;;;;4968990;28;20047;-74
2023/07/08 08:47:47;;;;;;;2.88;2.30;;;21.50;99.90;;;;;;4963131;28;20143;-74
2023/07/08 08:50:52;;;;;;;4.82;1.85;;;21.50;99.90;;;;;;5121420;27;20456;-73
2023/07/08 08:53:20;;;;;;;3.08;1.88;;;21.60;99.90;;;;;;5082606;28;20154;-78
2023/07/08 08:56:08;;;;;;;2.55;1.83;;;21.70;99.90;;;;;;5095317;28;20089;-72
2023/07/08 08:59:27;;;;;;;4.72;2.28;;;21.60;99.90;;;;;;5101868;28;20539;-73
2023/07/08 09:01:54;;;;;;;2.88;2.28;;;21.70;99.90;;;;;;5083596;27;20066;-78
2023/07/08 09:04:29;;;;;;;2.35;2.15;;;21.70;99.90;;;;;;5121233;27;20094;-74
2023/07/08 09:07:05;;;;;;;4.38;2.58;;;21.80;99.90;;;;;;5114152;28;20114;-72
2023/07/08 09:09:40;;;;;;;7.15;3.03;;;21.80;99.90;;;;;;5102701;28;20126;-73
2023/07/08 09:12:14;;;;;;;3.25;2.08;;;21.90;99.90;;;;;;5113013;27;20088;-72
2023/07/08 09:14:40;;;;;;;3.88;2.58;;;21.90;99.90;;;;;;5101971;28;20043;-72
2023/07/08 09:17:27;;;;;;;2.78;2.35;;;22.00;99.90;;;;;;5100843;28;20051;-72
2023/07/08 09:20:22;;;;;;;5.90;2.50;;;22.00;99.90;;;;;;5100305;28;20039;-77
2023/07/08 09:23:02;;;;;;;5.38;3.28;;;22.00;99.90;;;;;;5102045;28;20066;-75
2023/07/08 09:25:59;;;;;;;4.50;2.45;;;22.10;99.90;;;;;;5119909;28;20027;-76
2023/07/08 09:28:42;;;;;;;2.38;2.03;;;22.10;99.90;;;;;;5118521;28;20270;-74
2023/07/08 09:31:20;;;;;;;4.88;3.40;;;22.10;99.90;;;;;;5102289;28;20481;-73
2023/07/08 09:33:46;;;;;;;2.63;2.42;;;22.20;99.90;;;;;;5119055;28;20041;-73
2023/07/08 09:36:22;;;;;;;3.63;2.10;;;22.20;99.90;;;;;;5101140;28;20043;-78
2023/07/08 09:38:50;;;;;;;2.63;2.40;;;22.40;99.90;;;;;;5100926;28;20042;-74
2023/07/08 09:41:30;;;;;;;3.15;2.85;;;22.40;99.90;;;;;;5089622;27;20047;-80
2023/07/08 09:44:05;;;;;;;3.42;2.53;;;22.40;99.90;;;;;;5102488;28;20040;-78
2023/07/08 09:46:37;;;;;;;3.42;2.42;;;22.50;99.90;;;;;;5118560;28;20527;-76
2023/07/08 09:49:20;;;;;;;4.45;2.30;;;22.50;99.90;;;;;;5118797;27;20055;-78
2023/07/08 09:51:46;;;;;;;2.65;2.00;;;22.60;99.90;;;;;;5108828;28;20051;-75
2023/07/08 09:54:12;;;;;;;4.57;2.28;;;22.60;99.90;;;;;;5100601;28;20047;-74
2023/07/08 09:56:48;;;;;;;3.17;2.15;;;22.70;99.90;;;;;;5100301;28;20047;-74
2023/07/08 09:59:14;;;;;;;3.58;2.30;;;22.70;99.90;;;;;;5100261;28;20058;-74
2023/07/08 10:01:42;;;;;;;3.08;2.35;;;22.80;99.90;;;;;;5103435;28;20132;-74
2023/07/08 10:04:07;;;;;;;5.78;2.60;;;22.80;99.90;;;;;;5105502;28;20040;-75
2023/07/08 10:06:35;;;;;;;3.97;2.45;;;22.90;99.90;;;;;;5105987;28;20114;-79
2023/07/08 10:09:16;;;;;;;2.25;2.05;;;22.90;99.90;;;;;;5106928;28;20386;-81
2023/07/08 10:11:47;;;;;;;2.33;2.10;;;22.80;99.90;;;;;;5105493;28;20050;-81
2023/07/08 10:14:36;;;;;;;5.25;2.05;;;22.90;99.90;;;;;;5104062;28;20032;-78
2023/07/08 10:17:02;;;;;;;5.18;2.20;;;22.90;99.90;;;;;;5105093;28;20047;-83
2023/07/08 10:19:27;;;;;;;5.30;2.42;;;22.90;99.90;;;;;;5088608;28;20437;-87
2023/07/08 10:22:15;;;;;;;4.45;2.60;;;23.00;99.90;;;;;;5088859;28;20075;-89
2023/07/08 10:25:02;;;;;;;3.40;3.05;;;23.10;99.90;;;;;;5069503;28;20039;-84
2023/07/08 10:28:05;;;;;;;2.30;1.88;;;23.20;99.90;;;;;;5087806;28;20040;-84
2023/07/08 10:30:57;;;;;;;3.10;2.30;;;23.20;99.90;;;;;;4986059;28;20046;-84
2023/07/08 10:33:46;;;;;;;4.47;2.35;;;23.30;99.90;;;;;;5108886;27;20394;-72
2023/07/08 10:36:21;;;;;;;6.13;2.80;;;23.40;99.90;;;;;;5069830;28;20040;-82
2023/07/08 10:39:03;;;;;;;3.75;2.90;;;23.50;99.90;;;;;;5102587;28;20044;-69
2023/07/08 10:41:59;;;;;;;6.22;2.22;;;23.50;99.90;;;;;;5078513;28;20439;-70
2023/07/08 10:44:52;;;;;;;3.55;2.40;;;23.60;99.90;;;;;;5105564;28;20165;-70
2023/07/08 10:47:38;;;;;;;3.22;2.35;;;23.80;99.90;;;;;;5079079;28;20040;-69
2023/07/08 10:50:19;;;;;;;4.85;2.60;;;24.00;99.90;;;;;;5087220;28;20055;-69
2023/07/08 10:53:15;;;;;;;2.27;2.07;;;24.00;99.90;;;;;;5104828;28;20127;-69
2023/07/08 10:55:45;;;;;;;4.28;2.63;;;24.10;99.90;;;;;;5104960;28;20036;-69
2023/07/08 10:58:28;;;;;;;2.40;2.20;;;24.10;99.90;;;;;;5103138;28;20114;-69
2023/07/08 11:01:10;;;;;;;3.60;2.70;;;24.10;99.90;;;;;;5105209;28;20042;-71
2023/07/08 11:04:11;;;;;;;4.50;2.63;;;24.20;99.90;;;;;;5102203;28;20036;-70
2023/07/08 11:06:48;;;;;;;3.63;2.72;;;24.20;99.90;;;;;;5104897;28;20043;-69
2023/07/08 11:09:27;;;;;;;3.03;2.28;;;24.40;99.90;;;;;;5103926;28;20262;-69
2023/07/08 11:11:58;;;;;;;3.50;2.42;;;24.40;99.90;;;;;;5103712;28;20058;-69
2023/07/08 11:14:36;;;;;;;6.55;3.05;;;24.40;99.90;;;;;;5081570;28;20243;-71
2023/07/08 11:17:23;;;;;;;4.90;3.10;;;24.60;99.90;;;;;;5102981;28;20047;-71
2023/07/08 11:20:21;;;;;;;4.25;2.40;;;24.60;99.90;;;;;;5099743;28;20107;-70
2023/07/08 11:22:52;;;;;;;4.97;2.58;;;24.60;99.90;;;;;;5084839;28;20047;-69
2023/07/08 11:25:20;;;;;;;2.38;2.15;;;24.70;99.90;;;;;;5083798;28;20038;-70
2023/07/08 11:27:50;;;;;;;3.38;2.65;;;24.70;99.90;;;;;;5077577;28;20127;-75
2023/07/08 11:30:19;;;;;;;4.72;2.80;;;24.80;99.90;;;;;;5085305;28;20046;-76
2023/07/08 11:32:48;;;;;;;4.90;2.78;;;24.80;99.90;;;;;;5101735;28;20093;-74
2023/07/08 11:35:23;;;;;;;3.63;2.95;;;24.70;99.90;;;;;;5103380;28;20119;-76
2023/07/08 11:37:49;;;;;;;2.72;2.50;;;24.80;99.90;;;;;;5068462;28;20058;-75
2023/07/08 11:40:21;;;;;;;3.95;2.75;;;24.80;99.90;;;;;;5085964;28;20635;-75
2023/07/08 11:42:52;;;;;;;5.30;2.63;;;24.90;99.90;;;;;;5104726;28;20446;-71
2023/07/08 11:45:18;;;;;;;2.97;2.73;;;24.90;99.90;;;;;;5104441;28;20112;-71
2023/07/08 11:47:49;;;;;;;3.42;2.63;;;24.90;99.90;;;;;;5103756;28;20570;-70
2023/07/08 11:50:19;;;;;;;4.75;2.88;;;25.00;99.90;;;;;;5082776;28;20048;-70
2023/07/08 11:52:53;;;;;;;3.65;2.33;;;25.10;99.90;;;;;;5084397;28;20356;-71
2023/07/08 11:55:35;;;;;;;3.78;2.60;;;25.20;99.90;;;;;;5083683;28;20049;-70
2023/07/08 11:58:01;;;;;;;3.80;2.33;;;25.20;99.90;;;;;;5082001;28;20302;-70
2023/07/08 12:00:34;;;;;;;4.05;2.40;;;25.30;99.90;;;;;;5084425;28;20609;-69
2023/07/08 12:03:21;;;;;;;4.53;2.85;;;25.40;99.90;;;;;;5082829;28;20055;-70
2023/07/08 12:05:46;;;;;;;3.63;2.50;;;25.50;99.90;;;;;;5083830;28;20093;-69
2023/07/08 12:08:16;;;;;;;2.42;2.22;;;25.50;99.90;;;;;;5082960;28;20040;-70
2023/07/08 12:10:49;;;;;;;4.38;3.13;;;25.50;99.90;;;;;;5084190;28;20135;-70
2023/07/08 12:13:18;;;;;;;2.80;2.60;;;25.60;99.90;;;;;;5083632;28;20051;-70
2023/07/08 12:15:44;;;;;;;3.45;2.65;;;25.70;99.90;;;;;;5083123;28;20127;-70
2023/07/08 12:18:19;;;;;;;3.00;2.70;;;25.70;99.90;;;;;;5082792;28;20093;-70
2023/07/08 12:20:58;;;;;;;5.65;3.58;;;25.80;99.90;;;;;;5083846;28;20040;-70
2023/07/08 12:23:26;;;;;;;5.03;2.83;;;25.80;99.90;;;;;;5083734;28;20040;-70
2023/07/08 12:25:52;;;;;;;2.63;2.33;;;25.90;99.90;;;;;;5083789;28;20071;-69
2023/07/08 12:28:19;;;;;;;3.65;2.90;;;25.90;99.90;;;;;;5083873;28;20055;-70
2023/07/08 12:30:47;;;;;;;4.22;3.47;;;26.00;99.90;;;;;;5083867;28;20040;-69
2023/07/08 12:33:27;;;;;;;2.85;2.40;;;26.00;99.90;;;;;;5083360;28;20441;-70
2023/07/08 12:35:53;;;;;;;3.10;2.45;;;26.10;99.90;;;;;;5082761;28;20094;-70
2023/07/08 12:38:37;;;;;;;5.10;3.03;;;26.20;99.90;;;;;;5083323;28;20044;-70
2023/07/08 12:41:09;;;;;;;2.95;2.45;;;26.20;99.90;;;;;;5079047;28;20135;-70
2023/07/08 12:43:35;;;;;;;3.50;2.75;;;26.20;99.90;;;;;;5082045;28;20048;-70
2023/07/08 12:46:03;;;;;;;3.35;2.72;;;26.30;99.90;;;;;;5082209;28;20046;-70
2023/07/08 12:48:35;;;;;;;4.20;2.80;;;26.40;99.90;;;;;;5087950;28;20055;-70
2023/07/08 12:51:03;;;;;;;3.65;2.67;;;26.40;99.90;;;;;;5102725;28;20048;-70
2023/07/08 12:53:28;;;;;;;2.65;2.33;;;26.40;99.90;;;;;;5104755;28;20040;-70
2023/07/08 12:55:57;;;;;;;3.80;2.50;;;26.40;99.90;;;;;;5103919;28;20040;-70
2023/07/08 12:58:27;;;;;;;3.08;2.78;;;26.40;99.90;;;;;;5103907;28;20575;-70
2023/07/08 13:00:54;;;;;;;3.78;2.38;;;26.50;99.90;;;;;;5103212;28;20611;-71
2023/07/08 13:03:23;;;;;;;4.53;3.10;;;26.60;99.90;;;;;;5084491;28;20135;-70